sensor_id;sensor_type;location;lat;lon;timestamp;temperature;humidity
12309;DHT22;6217;48.150;17.142;2023-04-01T00:00:14;11.90;81.50
12309;DHT22;6217;48.150;17.142;2023-04-01T00:04:20;11.80;81.50
12309;DHT22;6217;48.150;17.142;2023-04-01T00:08:27;11.80;81.70
12309;DHT22;6217;48.150;17.142;2023-04-01T00:12:34;11.80;81.40
12309;DHT22;6217;48.150;17.142;2023-04-01T00:16:40;11.80;81.60
12309;DHT22;6217;48.150;17.142;2023-04-01T00:20:48;11.80;81.50
12309;DHT22;6217;48.150;17.142;2023-04-01T00:24:54;12.00;80.80
12309;DHT22;6217;48.150;17.142;2023-04-01T00:29:01;12.10;80.20
12309;DHT22;6217;48.150;17.142;2023-04-01T00:33:07;12.30;79.60
12309;DHT22;6217;48.150;17.142;2023-04-01T00:37:13;12.40;79.20
12309;DHT22;6217;48.150;17.142;2023-04-01T00:41:19;12.40;78.70
12309;DHT22;6217;48.150;17.142;2023-04-01T00:49:42;12.60;77.70
12309;DHT22;6217;48.150;17.142;2023-04-01T00:53:51;12.60;76.90
12309;DHT22;6217;48.150;17.142;2023-04-01T00:57:59;12.70;76.60
12309;DHT22;6217;48.150;17.142;2023-04-01T01:02:08;12.70;76.10
12309;DHT22;6217;48.150;17.142;2023-04-01T01:10:49;12.70;75.20
12309;DHT22;6217;48.150;17.142;2023-04-01T01:33:34;13.00;74.10
12309;DHT22;6217;48.150;17.142;2023-04-01T01:37:46;13.00;73.60
12309;DHT22;6217;48.150;17.142;2023-04-01T01:41:53;13.00;73.50
12309;DHT22;6217;48.150;17.142;2023-04-01T01:46:07;13.00;73.20
12309;DHT22;6217;48.150;17.142;2023-04-01T01:50:17;13.10;73.10
12309;DHT22;6217;48.150;17.142;2023-04-01T01:54:24;13.10;72.90
12309;DHT22;6217;48.150;17.142;2023-04-01T01:58:34;13.10;72.70
12309;DHT22;6217;48.150;17.142;2023-04-01T02:02:48;13.10;72.60
12309;DHT22;6217;48.150;17.142;2023-04-01T02:07:02;13.10;72.30
12309;DHT22;6217;48.150;17.142;2023-04-01T02:11:13;13.00;72.30
12309;DHT22;6217;48.150;17.142;2023-04-01T02:15:27;13.10;72.30
12309;DHT22;6217;48.150;17.142;2023-04-01T02:19:57;13.00;72.20
12309;DHT22;6217;48.150;17.142;2023-04-01T02:24:10;13.00;72.10
12309;DHT22;6217;48.150;17.142;2023-04-01T02:28:19;13.00;72.10
12309;DHT22;6217;48.150;17.142;2023-04-01T02:32:27;13.10;72.00
12309;DHT22;6217;48.150;17.142;2023-04-01T02:36:35;13.10;71.80
12309;DHT22;6217;48.150;17.142;2023-04-01T02:40:45;13.10;71.70
12309;DHT22;6217;48.150;17.142;2023-04-01T02:44:52;13.10;71.40
12309;DHT22;6217;48.150;17.142;2023-04-01T02:48:59;13.10;71.40
12309;DHT22;6217;48.150;17.142;2023-04-01T02:53:05;13.00;71.40
12309;DHT22;6217;48.150;17.142;2023-04-01T02:57:11;13.00;71.40
12309;DHT22;6217;48.150;17.142;2023-04-01T03:01:18;12.80;71.40
12309;DHT22;6217;48.150;17.142;2023-04-01T03:05:24;12.80;71.60
12309;DHT22;6217;48.150;17.142;2023-04-01T03:09:30;12.60;71.80
12309;DHT22;6217;48.150;17.142;2023-04-01T03:13:36;12.60;71.90
12309;DHT22;6217;48.150;17.142;2023-04-01T03:17:43;12.60;72.00
12309;DHT22;6217;48.150;17.142;2023-04-01T03:21:49;12.60;72.10
12309;DHT22;6217;48.150;17.142;2023-04-01T03:25:55;12.60;72.00
12309;DHT22;6217;48.150;17.142;2023-04-01T03:30:03;12.70;72.00
12309;DHT22;6217;48.150;17.142;2023-04-01T03:34:14;12.70;71.90
12309;DHT22;6217;48.150;17.142;2023-04-01T03:38:21;12.70;71.90
12309;DHT22;6217;48.150;17.142;2023-04-01T03:42:27;12.70;71.70
12309;DHT22;6217;48.150;17.142;2023-04-01T03:46:33;12.70;71.70
12309;DHT22;6217;48.150;17.142;2023-04-01T03:50:39;12.60;71.70
12309;DHT22;6217;48.150;17.142;2023-04-01T03:54:45;12.60;71.90
12309;DHT22;6217;48.150;17.142;2023-04-01T03:58:51;12.50;71.80
12309;DHT22;6217;48.150;17.142;2023-04-01T04:02:57;12.60;71.80
12309;DHT22;6217;48.150;17.142;2023-04-01T04:07:09;12.50;71.70
12309;DHT22;6217;48.150;17.142;2023-04-01T04:11:35;12.60;71.70
12309;DHT22;6217;48.150;17.142;2023-04-01T04:15:41;12.50;71.70
12309;DHT22;6217;48.150;17.142;2023-04-01T04:19:47;12.50;71.80
12309;DHT22;6217;48.150;17.142;2023-04-01T04:23:54;12.50;71.80
12309;DHT22;6217;48.150;17.142;2023-04-01T04:28:00;12.60;71.80
12309;DHT22;6217;48.150;17.142;2023-04-01T04:32:06;12.70;71.90
12309;DHT22;6217;48.150;17.142;2023-04-01T04:36:14;12.70;71.90
12309;DHT22;6217;48.150;17.142;2023-04-01T04:40:20;12.80;71.70
12309;DHT22;6217;48.150;17.142;2023-04-01T04:44:26;12.80;71.50
12309;DHT22;6217;48.150;17.142;2023-04-01T04:48:32;12.80;71.40
12309;DHT22;6217;48.150;17.142;2023-04-01T04:52:38;12.80;71.30
12309;DHT22;6217;48.150;17.142;2023-04-01T04:56:44;12.80;71.50
12309;DHT22;6217;48.150;17.142;2023-04-01T05:00:50;12.80;71.50
12309;DHT22;6217;48.150;17.142;2023-04-01T05:05:01;12.80;71.50
12309;DHT22;6217;48.150;17.142;2023-04-01T05:09:07;12.70;71.70
12309;DHT22;6217;48.150;17.142;2023-04-01T05:13:13;12.80;72.00
12309;DHT22;6217;48.150;17.142;2023-04-01T05:17:21;12.80;72.00
12309;DHT22;6217;48.150;17.142;2023-04-01T05:21:27;12.80;71.80
12309;DHT22;6217;48.150;17.142;2023-04-01T05:25:37;12.80;71.80
12309;DHT22;6217;48.150;17.142;2023-04-01T05:29:44;12.80;71.70
12309;DHT22;6217;48.150;17.142;2023-04-01T05:34:08;12.80;71.80
12309;DHT22;6217;48.150;17.142;2023-04-01T05:38:14;12.80;71.80
12309;DHT22;6217;48.150;17.142;2023-04-01T05:42:20;12.90;71.90
12309;DHT22;6217;48.150;17.142;2023-04-01T05:46:27;13.00;72.00
12309;DHT22;6217;48.150;17.142;2023-04-01T05:50:44;13.00;71.70
12309;DHT22;6217;48.150;17.142;2023-04-01T05:54:51;13.10;71.50
12309;DHT22;6217;48.150;17.142;2023-04-01T05:58:57;13.00;71.40
12309;DHT22;6217;48.150;17.142;2023-04-01T06:03:03;13.00;71.40
12309;DHT22;6217;48.150;17.142;2023-04-01T06:07:17;13.10;72.40
12309;DHT22;6217;48.150;17.142;2023-04-01T06:17:15;14.20;71.80
12309;DHT22;6217;48.150;17.142;2023-04-01T06:30:41;15.50;67.70
12309;DHT22;6217;48.150;17.142;2023-04-01T06:54:48;16.70;63.70
12309;DHT22;6217;48.150;17.142;2023-04-01T06:59:22;17.00;62.40
12309;DHT22;6217;48.150;17.142;2023-04-01T07:03:49;17.20;61.40
12309;DHT22;6217;48.150;17.142;2023-04-01T07:08:02;17.20;60.00
12309;DHT22;6217;48.150;17.142;2023-04-01T07:17:21;16.90;59.00
12309;DHT22;6217;48.150;17.142;2023-04-01T07:21:35;16.90;58.60
12309;DHT22;6217;48.150;17.142;2023-04-01T07:25:59;16.70;58.70
12309;DHT22;6217;48.150;17.142;2023-04-01T07:30:30;16.70;59.00
12309;DHT22;6217;48.150;17.142;2023-04-01T07:35:03;16.80;58.60
12309;DHT22;6217;48.150;17.142;2023-04-01T07:48:35;16.60;58.10
12309;DHT22;6217;48.150;17.142;2023-04-01T07:52:51;16.50;57.80
12309;DHT22;6217;48.150;17.142;2023-04-01T07:57:35;16.50;58.20
12309;DHT22;6217;48.150;17.142;2023-04-01T08:01:49;16.50;57.80
12309;DHT22;6217;48.150;17.142;2023-04-01T08:06:27;16.50;57.60
12309;DHT22;6217;48.150;17.142;2023-04-01T08:15:28;16.60;57.20
12309;DHT22;6217;48.150;17.142;2023-04-01T08:19:59;16.70;57.10
12309;DHT22;6217;48.150;17.142;2023-04-01T08:33:30;16.70;56.70
12309;DHT22;6217;48.150;17.142;2023-04-01T08:37:52;16.70;56.90
12309;DHT22;6217;48.150;17.142;2023-04-01T08:42:37;16.80;56.80
12309;DHT22;6217;48.150;17.142;2023-04-01T09:01:14;17.30;55.00
12309;DHT22;6217;48.150;17.142;2023-04-01T09:06:02;17.20;55.10
12309;DHT22;6217;48.150;17.142;2023-04-01T09:10:49;17.20;54.60
12309;DHT22;6217;48.150;17.142;2023-04-01T09:20:38;17.20;54.50
12309;DHT22;6217;48.150;17.142;2023-04-01T09:54:02;17.20;54.30
12309;DHT22;6217;48.150;17.142;2023-04-01T09:58:42;17.00;54.80
12309;DHT22;6217;48.150;17.142;2023-04-01T10:03:40;16.90;54.90
12309;DHT22;6217;48.150;17.142;2023-04-01T10:13:12;16.90;55.00
12309;DHT22;6217;48.150;17.142;2023-04-01T10:17:56;16.90;55.00
12309;DHT22;6217;48.150;17.142;2023-04-01T10:27:37;17.20;54.80
12309;DHT22;6217;48.150;17.142;2023-04-01T10:36:46;17.40;54.20
12309;DHT22;6217;48.150;17.142;2023-04-01T10:41:32;17.40;53.90
12309;DHT22;6217;48.150;17.142;2023-04-01T10:46:43;17.40;53.90
12309;DHT22;6217;48.150;17.142;2023-04-01T10:51:31;17.40;53.60
12309;DHT22;6217;48.150;17.142;2023-04-01T10:56:29;17.10;53.40
12309;DHT22;6217;48.150;17.142;2023-04-01T11:16:39;16.90;54.20
12309;DHT22;6217;48.150;17.142;2023-04-01T11:36:25;17.30;52.30
12309;DHT22;6217;48.150;17.142;2023-04-01T11:46:15;17.20;52.20
12309;DHT22;6217;48.150;17.142;2023-04-01T11:50:57;17.10;52.20
12309;DHT22;6217;48.150;17.142;2023-04-01T11:55:10;17.10;52.20
12309;DHT22;6217;48.150;17.142;2023-04-01T12:04:27;17.20;51.90
12309;DHT22;6217;48.150;17.142;2023-04-01T12:13:53;17.60;51.60
12309;DHT22;6217;48.150;17.142;2023-04-01T12:18:38;17.70;50.50
12309;DHT22;6217;48.150;17.142;2023-04-01T12:23:03;17.70;49.60
12309;DHT22;6217;48.150;17.142;2023-04-01T12:32:17;17.80;49.60
12309;DHT22;6217;48.150;17.142;2023-04-01T12:37:12;18.00;49.50
12309;DHT22;6217;48.150;17.142;2023-04-01T12:41:13;18.10;49.20
12309;DHT22;6217;48.150;17.142;2023-04-01T12:55:40;18.20;48.80
12309;DHT22;6217;48.150;17.142;2023-04-01T13:08:43;18.00;48.00
12309;DHT22;6217;48.150;17.142;2023-04-01T13:24:31;17.80;47.50
12309;DHT22;6217;48.150;17.142;2023-04-01T13:42:24;17.70;47.40
12309;DHT22;6217;48.150;17.142;2023-04-01T14:04:29;17.50;47.70
12309;DHT22;6217;48.150;17.142;2023-04-01T14:13:48;17.50;47.60
12309;DHT22;6217;48.150;17.142;2023-04-01T14:36:19;17.30;47.50
12309;DHT22;6217;48.150;17.142;2023-04-01T14:40:56;17.30;47.80
12309;DHT22;6217;48.150;17.142;2023-04-01T14:45:34;17.20;48.20
12309;DHT22;6217;48.150;17.142;2023-04-01T14:50:03;17.20;48.20
12309;DHT22;6217;48.150;17.142;2023-04-01T14:54:18;17.30;48.50
12309;DHT22;6217;48.150;17.142;2023-04-01T14:58:49;17.30;48.50
12309;DHT22;6217;48.150;17.142;2023-04-01T15:03:00;17.30;48.60
12309;DHT22;6217;48.150;17.142;2023-04-01T15:07:22;17.20;48.60
12309;DHT22;6217;48.150;17.142;2023-04-01T15:11:49;17.20;48.80
12309;DHT22;6217;48.150;17.142;2023-04-01T15:34:32;17.40;49.10
12309;DHT22;6217;48.150;17.142;2023-04-01T15:39:17;17.40;49.10
12309;DHT22;6217;48.150;17.142;2023-04-01T15:43:44;17.30;49.30
12309;DHT22;6217;48.150;17.142;2023-04-01T15:48:02;17.20;49.30
12309;DHT22;6217;48.150;17.142;2023-04-01T16:01:51;17.00;49.90
12309;DHT22;6217;48.150;17.142;2023-04-01T16:11:18;16.90;50.00
12309;DHT22;6217;48.150;17.142;2023-04-01T16:20:07;16.80;50.00
12309;DHT22;6217;48.150;17.142;2023-04-01T16:38:26;16.60;51.20
12309;DHT22;6217;48.150;17.142;2023-04-01T16:42:51;16.60;50.70
12309;DHT22;6217;48.150;17.142;2023-04-01T16:47:07;16.60;50.60
12309;DHT22;6217;48.150;17.142;2023-04-01T16:51:16;16.50;50.60
12309;DHT22;6217;48.150;17.142;2023-04-01T16:55:28;16.50;50.70
12309;DHT22;6217;48.150;17.142;2023-04-01T16:59:47;16.50;50.80
12309;DHT22;6217;48.150;17.142;2023-04-01T17:13:40;16.40;50.90
12309;DHT22;6217;48.150;17.142;2023-04-01T17:18:04;16.40;51.00
12309;DHT22;6217;48.150;17.142;2023-04-01T17:35:57;16.20;51.10
12309;DHT22;6217;48.150;17.142;2023-04-01T17:44:34;16.10;51.20
12309;DHT22;6217;48.150;17.142;2023-04-01T17:49:28;16.10;51.40
12309;DHT22;6217;48.150;17.142;2023-04-01T17:54:01;16.10;51.40
12309;DHT22;6217;48.150;17.142;2023-04-01T18:07:44;15.90;52.00
12309;DHT22;6217;48.150;17.142;2023-04-01T18:17:32;15.70;52.70
12309;DHT22;6217;48.150;17.142;2023-04-01T18:22:18;15.50;53.40
12309;DHT22;6217;48.150;17.142;2023-04-01T18:26:35;15.50;53.90
12309;DHT22;6217;48.150;17.142;2023-04-01T18:30:49;15.40;54.10
12309;DHT22;6217;48.150;17.142;2023-04-01T18:39:19;15.30;54.60
12309;DHT22;6217;48.150;17.142;2023-04-01T18:43:34;15.20;54.90
12309;DHT22;6217;48.150;17.142;2023-04-01T18:52:40;15.00;55.70
12309;DHT22;6217;48.150;17.142;2023-04-01T18:56:49;14.90;56.30
12309;DHT22;6217;48.150;17.142;2023-04-01T19:01:16;14.80;56.50
12309;DHT22;6217;48.150;17.142;2023-04-01T19:09:45;14.70;58.20
12309;DHT22;6217;48.150;17.142;2023-04-01T19:14:08;14.60;57.60
12309;DHT22;6217;48.150;17.142;2023-04-01T19:42:30;14.20;60.10
12309;DHT22;6217;48.150;17.142;2023-04-01T19:55:39;14.10;61.10
12309;DHT22;6217;48.150;17.142;2023-04-01T20:00:07;14.00;61.50
12309;DHT22;6217;48.150;17.142;2023-04-01T20:04:26;14.00;61.60
12309;DHT22;6217;48.150;17.142;2023-04-01T20:13:23;13.90;61.80
12309;DHT22;6217;48.150;17.142;2023-04-01T20:21:48;13.80;62.10
12309;DHT22;6217;48.150;17.142;2023-04-01T20:26:12;13.70;62.40
12309;DHT22;6217;48.150;17.142;2023-04-01T20:30:28;13.70;62.70
12309;DHT22;6217;48.150;17.142;2023-04-01T20:34:58;13.60;63.00
12309;DHT22;6217;48.150;17.142;2023-04-01T20:43:50;13.50;63.40
12309;DHT22;6217;48.150;17.142;2023-04-01T20:52:41;13.40;63.80
12309;DHT22;6217;48.150;17.142;2023-04-01T20:57:11;13.30;64.70
12309;DHT22;6217;48.150;17.142;2023-04-01T21:28:37;13.10;65.40
12309;DHT22;6217;48.150;17.142;2023-04-01T21:38:14;13.10;66.00
12309;DHT22;6217;48.150;17.142;2023-04-01T22:23:21;12.90;67.70
12309;DHT22;6217;48.150;17.142;2023-04-01T22:27:39;12.80;67.80
12309;DHT22;6217;48.150;17.142;2023-04-01T22:31:52;12.80;68.00
12309;DHT22;6217;48.150;17.142;2023-04-01T22:36:18;12.90;67.90
12309;DHT22;6217;48.150;17.142;2023-04-01T22:49:54;12.80;68.10
12309;DHT22;6217;48.150;17.142;2023-04-01T22:58:24;12.80;68.60
12309;DHT22;6217;48.150;17.142;2023-04-01T23:02:39;12.80;68.80
12309;DHT22;6217;48.150;17.142;2023-04-01T23:06:53;12.80;68.80
12309;DHT22;6217;48.150;17.142;2023-04-01T23:11:30;12.70;68.80
12309;DHT22;6217;48.150;17.142;2023-04-01T23:15:38;12.80;69.20
12309;DHT22;6217;48.150;17.142;2023-04-01T23:20:07;12.70;69.20
12309;DHT22;6217;48.150;17.142;2023-04-01T23:37:17;12.70;69.70
12309;DHT22;6217;48.150;17.142;2023-04-01T23:41:30;12.70;69.80
12309;DHT22;6217;48.150;17.142;2023-04-01T23:45:36;12.70;70.00
12309;DHT22;6217;48.150;17.142;2023-04-01T23:49:46;12.60;70.40
12309;DHT22;6217;48.150;17.142;2023-04-01T23:54:14;12.60;70.60
12309;DHT22;6217;48.150;17.142;2023-04-01T23:58:26;12.60;70.60
